createdAt,value
2019-01-13T00:00:02.446Z,91.42
2019-01-13T00:01:02.258Z,91.36
2019-01-13T00:02:02.249Z,91.42
2019-01-13T00:03:02.235Z,91.57
2019-01-13T00:04:02.227Z,91.42
2019-01-13T00:05:02.222Z,91.42
2019-01-13T00:06:02.207Z,91.42
2019-01-13T00:07:02.196Z,91.42
2019-01-13T00:08:02.182Z,91.53
2019-01-13T00:09:02.182Z,91.01
2019-01-13T00:10:02.165Z,90.70
2019-01-13T00:11:02.166Z,90.80
2019-01-13T00:12:02.158Z,90.80
2019-01-13T00:13:02.132Z,90.60
2019-01-13T00:14:02.118Z,90.70
2019-01-13T00:15:02.116Z,91.22
2019-01-13T00:16:02.097Z,90.91
2019-01-13T00:17:02.090Z,90.91
2019-01-13T00:18:02.081Z,91.01
2019-01-13T00:19:02.065Z,90.91
2019-01-13T00:20:02.053Z,91.11
2019-01-13T00:21:02.050Z,91.11
2019-01-13T00:22:02.031Z,91.11
2019-01-13T00:23:02.025Z,90.70
2019-01-13T00:24:02.029Z,91.11
2019-01-13T00:25:02.010Z,91.01
2019-01-13T00:26:01.981Z,90.70
2019-01-13T00:27:01.972Z,90.29
2019-01-13T00:28:02.007Z,90.19
2019-01-13T00:29:01.952Z,90.08
2019-01-13T00:30:01.943Z,90.19
2019-01-13T00:31:01.929Z,90.39
2019-01-13T00:32:01.914Z,90.19
2019-01-13T00:33:01.906Z,89.98
2019-01-13T00:34:01.901Z,90.29
2019-01-13T00:35:01.884Z,90.19
2019-01-13T00:36:01.873Z,91.01
2019-01-13T00:37:01.934Z,90.80
2019-01-13T00:38:01.890Z,90.39
2019-01-13T00:39:01.845Z,91.01
2019-01-13T00:40:01.836Z,91.11
2019-01-13T00:41:01.827Z,91.01
2019-01-13T00:42:01.814Z,91.11
2019-01-13T00:43:01.796Z,90.80
2019-01-13T00:44:01.785Z,91.22
2019-01-13T00:45:01.773Z,91.01
2019-01-13T00:46:01.764Z,90.91
2019-01-13T00:47:01.751Z,90.80
2019-01-13T00:48:01.739Z,91.11
2019-01-13T00:49:01.728Z,91.01
2019-01-13T00:50:01.732Z,91.11
2019-01-13T00:51:01.708Z,91.11
2019-01-13T00:52:01.742Z,90.91
2019-01-13T00:53:01.684Z,90.70
2019-01-13T00:54:01.676Z,90.91
2019-01-13T00:55:01.663Z,90.19
2019-01-13T00:56:01.654Z,91.01
2019-01-13T00:57:01.649Z,91.11
2019-01-13T00:58:01.629Z,91.01
2019-01-13T00:59:01.624Z,91.01
2019-01-13T01:00:01.611Z,90.80
2019-01-13T01:01:01.599Z,90.91
2019-01-13T01:02:01.590Z,91.01
2019-01-13T01:03:01.579Z,90.91
2019-01-13T01:04:01.565Z,91.22
2019-01-13T01:05:01.554Z,91.01
2019-01-13T01:06:01.546Z,91.42
2019-01-13T01:07:01.532Z,90.91
2019-01-13T01:08:01.524Z,91.01
2019-01-13T01:09:01.524Z,91.01
2019-01-13T01:10:01.503Z,91.11
2019-01-13T01:11:01.496Z,91.32
2019-01-13T01:12:01.478Z,91.74
2019-01-13T01:13:01.469Z,91.42
2019-01-13T01:14:01.459Z,91.84
2019-01-13T01:15:01.449Z,92.36
2019-01-13T01:16:01.433Z,92.91
2019-01-13T01:17:01.424Z,92.91
2019-01-13T01:18:01.413Z,92.91
2019-01-13T01:19:01.412Z,93.43
2019-01-13T01:20:01.403Z,93.23
2019-01-13T01:21:01.383Z,92.91
2019-01-13T01:22:01.372Z,93.02
2019-01-13T01:23:01.359Z,93.12
2019-01-13T01:24:01.354Z,92.91
2019-01-13T01:25:01.337Z,93.23
2019-01-13T01:26:01.326Z,93.12
2019-01-13T01:27:01.316Z,93.23
2019-01-13T01:28:01.303Z,93.74
2019-01-13T01:29:01.294Z,93.43
2019-01-13T01:30:01.282Z,93.23
2019-01-13T01:31:01.269Z,93.43
2019-01-13T01:32:01.265Z,93.23
2019-01-13T01:33:01.248Z,93.43
2019-01-13T01:34:01.239Z,93.33
2019-01-13T01:35:01.226Z,92.91
2019-01-13T01:36:01.215Z,93.64
2019-01-13T01:37:01.205Z,92.91
2019-01-13T01:38:01.195Z,91.88
2019-01-13T01:39:01.184Z,91.47
2019-01-13T01:40:01.174Z,91.05
2019-01-13T01:41:01.162Z,90.74
2019-01-13T01:42:01.153Z,90.84
2019-01-13T01:43:01.141Z,90.95
2019-01-13T01:44:01.131Z,90.74
2019-01-13T01:45:01.120Z,91.05
2019-01-13T01:46:01.106Z,90.84
2019-01-13T01:47:01.111Z,91.05
2019-01-13T01:48:01.086Z,91.47
2019-01-13T01:49:01.075Z,90.95
2019-01-13T01:50:01.065Z,90.84
2019-01-13T01:51:01.054Z,91.05
2019-01-13T01:52:01.041Z,91.05
2019-01-13T01:53:01.970Z,90.95
2019-01-13T01:54:01.021Z,91.05
2019-01-13T01:55:01.020Z,90.33
2019-01-13T01:56:00.997Z,89.98
2019-01-13T01:57:00.986Z,89.71
2019-01-13T01:58:00.975Z,89.56
2019-01-13T01:59:00.967Z,88.78
2019-01-13T02:00:00.953Z,88.88
2019-01-13T02:01:00.947Z,89.29
2019-01-13T02:02:00.933Z,89.36
2019-01-13T02:03:00.924Z,88.78
2019-01-13T02:04:00.912Z,88.43
2019-01-13T02:05:00.960Z,88.32
2019-01-13T02:06:00.900Z,87.81
2019-01-13T02:07:00.887Z,87.81
2019-01-13T02:08:00.902Z,87.81
2019-01-13T02:09:00.856Z,87.95
2019-01-13T02:10:00.846Z,87.95
2019-01-13T02:11:00.835Z,87.85
2019-01-13T02:12:00.826Z,87.74
2019-01-13T02:13:00.816Z,87.54
2019-01-13T02:14:00.827Z,88.26
2019-01-13T02:15:00.795Z,88.06
2019-01-13T02:16:00.781Z,87.95
2019-01-13T02:17:00.770Z,87.74
2019-01-13T02:18:00.766Z,87.02
2019-01-13T02:19:00.751Z,86.98
2019-01-13T02:20:00.768Z,87.18
2019-01-13T02:21:00.728Z,87.33
2019-01-13T02:22:00.722Z,86.57
2019-01-13T02:23:00.709Z,86.57
2019-01-13T02:24:00.696Z,86.36
2019-01-13T02:25:00.691Z,85.63
2019-01-13T02:26:00.681Z,85.94
2019-01-13T02:27:00.664Z,85.94
2019-01-13T02:28:00.656Z,85.32
2019-01-13T02:29:00.672Z,85.53
2019-01-13T02:30:00.632Z,85.42
2019-01-13T02:31:00.654Z,85.53
2019-01-13T02:32:00.608Z,85.53
2019-01-13T02:33:00.598Z,85.32
2019-01-13T02:34:00.583Z,85.42
2019-01-13T02:35:00.575Z,85.11
2019-01-13T02:36:00.563Z,84.91
2019-01-13T02:37:00.552Z,85.11
2019-01-13T02:38:00.539Z,84.60
2019-01-13T02:39:00.528Z,84.70
2019-01-13T02:40:00.570Z,84.50
2019-01-13T02:41:00.506Z,84.19
2019-01-13T02:42:00.497Z,84.60
2019-01-13T02:43:00.497Z,84.70
2019-01-13T02:44:00.477Z,85.02
2019-01-13T02:45:00.465Z,85.32
2019-01-13T02:46:00.452Z,84.91
2019-01-13T02:47:00.443Z,85.32
2019-01-13T02:48:00.436Z,85.32
2019-01-13T02:49:00.421Z,85.53
2019-01-13T02:50:00.410Z,85.63
2019-01-13T02:51:00.406Z,85.32
2019-01-13T02:52:00.387Z,85.63
2019-01-13T02:53:00.379Z,85.74
2019-01-13T02:54:00.389Z,86.29
2019-01-13T02:55:00.358Z,86.57
2019-01-13T02:56:00.350Z,86.67
2019-01-13T02:57:00.332Z,87.39
2019-01-13T02:58:00.321Z,86.81
2019-01-13T02:59:00.310Z,87.95
2019-01-13T03:00:00.306Z,88.01
2019-01-13T03:01:00.289Z,87.64
2019-01-13T03:02:00.286Z,87.95
2019-01-13T03:03:00.266Z,87.64
2019-01-13T03:04:00.258Z,87.64
2019-01-13T03:05:00.245Z,88.32
2019-01-13T03:06:00.242Z,88.36
2019-01-13T03:07:00.224Z,89.67
2019-01-13T03:08:00.212Z,89.56
2019-01-13T03:09:00.203Z,89.29
2019-01-13T03:10:00.240Z,89.50
2019-01-13T03:11:00.185Z,89.09
2019-01-13T03:12:00.170Z,89.29
2019-01-13T03:13:00.158Z,89.71
2019-01-13T03:14:00.147Z,89.87
2019-01-13T03:15:00.272Z,89.40
2019-01-13T03:16:00.132Z,90.23
2019-01-13T03:17:00.119Z,90.02
2019-01-13T03:18:00.104Z,90.02
2019-01-13T03:19:00.099Z,90.33
2019-01-13T03:20:00.215Z,91.05
2019-01-13T03:21:00.081Z,91.05
2019-01-13T03:22:00.068Z,91.16
2019-01-13T03:23:00.051Z,91.36
2019-01-13T03:24:00.040Z,91.57
2019-01-13T03:25:00.026Z,92.50
2019-01-13T03:26:00.019Z,92.19
2019-01-13T03:27:00.010Z,93.12
2019-01-13T03:28:00.003Z,93.12
2019-01-13T03:28:59.985Z,93.54
2019-01-13T03:29:59.979Z,93.85
2019-01-13T03:31:11.102Z,93.33
2019-01-13T03:32:00.976Z,93.54
2019-01-13T03:32:59.942Z,94.47
2019-01-13T03:33:59.931Z,93.85
2019-01-13T03:34:59.921Z,94.10
2019-01-13T03:35:59.909Z,94.57
2019-01-13T03:36:59.896Z,94.16
2019-01-13T03:37:59.887Z,93.85
2019-01-13T03:38:59.874Z,94.41
2019-01-13T03:39:59.864Z,94.26
2019-01-13T03:40:59.851Z,94.37
2019-01-13T03:41:59.843Z,94.26
2019-01-13T03:42:59.830Z,94.41
2019-01-13T03:43:59.819Z,94.47
2019-01-13T03:44:59.807Z,94.57
2019-01-13T03:45:59.798Z,94.78
2019-01-13T03:46:59.789Z,94.57
2019-01-13T03:47:59.778Z,94.78
2019-01-13T03:48:59.764Z,94.37
2019-01-13T03:49:59.757Z,94.47
2019-01-13T03:50:59.743Z,94.78
2019-01-13T03:51:59.750Z,94.78
2019-01-13T03:52:59.720Z,95.19
2019-01-13T03:53:59.710Z,95.40
2019-01-13T03:54:59.702Z,95.86
2019-01-13T03:55:59.690Z,95.75
2019-01-13T03:56:59.703Z,95.44
2019-01-13T03:57:59.668Z,95.50
2019-01-13T03:58:59.659Z,95.29
2019-01-13T03:59:59.645Z,95.34
2019-01-13T04:00:59.632Z,95.40
2019-01-13T04:01:59.626Z,95.09
2019-01-13T04:02:59.639Z,96.06
2019-01-13T04:03:59.603Z,95.81
2019-01-13T04:04:59.592Z,95.50
2019-01-13T04:05:59.584Z,95.19
2019-01-13T04:06:59.569Z,95.54
2019-01-13T04:07:59.558Z,95.19
2019-01-13T04:08:59.549Z,95.14
2019-01-13T04:09:59.536Z,95.29
2019-01-13T04:10:59.526Z,95.92
2019-01-13T04:11:59.515Z,95.09
2019-01-13T04:12:59.502Z,95.92
2019-01-13T04:13:59.494Z,96.02
2019-01-13T04:14:59.495Z,95.40
2019-01-13T04:15:59.469Z,95.29
2019-01-13T04:16:59.460Z,95.29
2019-01-13T04:17:59.450Z,96.02
2019-01-13T04:18:59.440Z,95.92
2019-01-13T04:19:59.427Z,95.71
2019-01-13T04:20:59.415Z,95.81
2019-01-13T04:21:59.404Z,95.19
2019-01-13T04:22:59.396Z,95.86
2019-01-13T04:23:59.383Z,95.86
2019-01-13T04:24:59.372Z,95.75
2019-01-13T04:25:59.365Z,95.14
2019-01-13T04:26:59.351Z,95.75
2019-01-13T04:27:59.340Z,95.24
2019-01-13T04:28:59.328Z,95.44
2019-01-13T04:29:59.319Z,95.34
2019-01-13T04:30:59.312Z,95.54
2019-01-13T04:31:59.313Z,95.29
2019-01-13T04:32:59.286Z,95.50
2019-01-13T04:33:59.275Z,95.40
2019-01-13T04:34:59.263Z,95.61
2019-01-13T04:35:59.251Z,95.61
2019-01-13T04:36:59.265Z,95.71
2019-01-13T04:37:59.232Z,95.71
2019-01-13T04:38:59.218Z,95.29
2019-01-13T04:39:59.211Z,94.78
2019-01-13T04:40:59.202Z,94.98
2019-01-13T04:41:59.191Z,94.68
2019-01-13T04:42:59.178Z,94.68
2019-01-13T04:43:59.178Z,94.68
2019-01-13T04:44:59.157Z,94.57
2019-01-13T04:45:59.145Z,94.78
2019-01-13T04:46:59.141Z,94.47
2019-01-13T04:47:59.122Z,94.89
2019-01-13T04:48:59.115Z,94.47
2019-01-13T04:49:59.122Z,94.37
2019-01-13T04:50:59.093Z,94.78
2019-01-13T04:51:59.079Z,94.57
2019-01-13T04:52:59.067Z,94.26
2019-01-13T04:53:59.065Z,94.68
2019-01-13T04:54:59.045Z,94.68
2019-01-13T04:55:59.040Z,94.57
2019-01-13T04:56:59.043Z,94.68
2019-01-13T04:57:59.015Z,94.68
2019-01-13T04:58:59.002Z,94.57
2019-01-13T04:59:58.992Z,94.78
2019-01-13T05:00:58.982Z,94.78
2019-01-13T05:01:58.969Z,95.40
2019-01-13T05:02:58.961Z,95.61
2019-01-13T05:03:58.946Z,95.61
2019-01-13T05:04:58.938Z,95.29
2019-01-13T05:05:58.927Z,95.81
2019-01-13T05:06:58.930Z,95.71
2019-01-13T05:07:58.905Z,95.61
2019-01-13T05:08:58.898Z,95.19
2019-01-13T05:09:58.881Z,95.19
2019-01-13T05:10:58.879Z,95.92
2019-01-13T05:11:58.860Z,95.92
2019-01-13T05:12:58.852Z,95.71
2019-01-13T05:13:58.859Z,95.71
2019-01-13T05:14:58.839Z,95.92
2019-01-13T05:15:58.817Z,95.71
2019-01-13T05:16:58.806Z,95.81
2019-01-13T05:17:58.797Z,95.81
2019-01-13T05:18:58.798Z,95.81
2019-01-13T05:19:58.780Z,95.81
2019-01-13T05:20:58.765Z,95.61
2019-01-13T05:21:58.750Z,95.61
2019-01-13T05:22:58.741Z,95.71
2019-01-13T05:23:58.736Z,95.92
2019-01-13T05:24:58.726Z,95.61
2019-01-13T05:25:58.711Z,95.81
2019-01-13T05:26:58.703Z,96.02
2019-01-13T05:27:58.689Z,95.81
2019-01-13T05:28:58.680Z,95.71
2019-01-13T05:29:58.666Z,95.92
2019-01-13T05:30:58.665Z,95.71
2019-01-13T05:31:58.697Z,95.81
2019-01-13T05:32:58.637Z,95.29
2019-01-13T05:33:58.623Z,95.50
2019-01-13T05:34:58.613Z,95.09
2019-01-13T05:35:58.599Z,95.61
2019-01-13T05:36:58.591Z,95.40
2019-01-13T05:37:58.587Z,95.71
2019-01-13T05:38:58.566Z,95.71
2019-01-13T05:39:58.560Z,95.71
2019-01-13T05:40:58.545Z,95.61
2019-01-13T05:41:58.536Z,95.40
2019-01-13T05:42:58.522Z,95.19
2019-01-13T05:43:58.513Z,95.19
2019-01-13T05:44:58.505Z,95.92
2019-01-13T05:45:58.492Z,95.71
2019-01-13T05:46:58.480Z,95.61
2019-01-13T05:47:58.471Z,95.71
2019-01-13T05:48:58.458Z,95.81
2019-01-13T05:49:58.448Z,95.29
2019-01-13T05:50:58.435Z,95.40
2019-01-13T05:51:58.426Z,95.19
2019-01-13T05:52:58.414Z,95.09
2019-01-13T05:53:58.409Z,95.71
2019-01-13T05:54:58.393Z,95.71
2019-01-13T05:55:58.390Z,95.61
2019-01-13T05:56:58.372Z,95.92
2019-01-13T05:57:58.366Z,95.92
2019-01-13T05:58:58.350Z,95.81
2019-01-13T05:59:58.342Z,95.40
2019-01-13T06:00:58.330Z,95.50
2019-01-13T06:01:58.323Z,95.29
2019-01-13T06:02:58.309Z,95.09
2019-01-13T06:03:58.296Z,95.29
2019-01-13T06:04:58.289Z,95.50
2019-01-13T06:05:58.280Z,95.19
2019-01-13T06:06:58.261Z,95.81
2019-01-13T06:07:58.250Z,96.12
2019-01-13T06:08:58.239Z,95.81
2019-01-13T06:09:58.229Z,96.33
2019-01-13T06:10:58.219Z,96.23
2019-01-13T06:11:58.210Z,96.54
2019-01-13T06:12:58.197Z,96.54
2019-01-13T06:13:58.185Z,96.64
2019-01-13T06:14:58.174Z,96.33
2019-01-13T06:15:58.163Z,96.02
2019-01-13T06:16:58.156Z,96.12
2019-01-13T06:17:58.141Z,96.44
2019-01-13T06:18:58.132Z,96.54
2019-01-13T06:19:58.129Z,96.54
2019-01-13T06:20:58.111Z,96.44
2019-01-13T06:21:58.097Z,96.44
2019-01-13T06:22:58.089Z,96.33
2019-01-13T06:23:58.075Z,96.44
2019-01-13T06:24:58.067Z,96.44
2019-01-13T06:25:58.053Z,95.71
2019-01-13T06:26:58.046Z,95.92
2019-01-13T06:27:58.032Z,95.71
2019-01-13T06:28:58.026Z,95.92
2019-01-13T06:29:58.012Z,95.40
2019-01-13T06:30:58.001Z,95.40
2019-01-13T06:31:57.992Z,95.40
2019-01-13T06:32:57.979Z,95.61
2019-01-13T06:33:57.969Z,95.81
2019-01-13T06:34:57.956Z,95.71
2019-01-13T06:35:57.947Z,95.81
2019-01-13T06:36:57.947Z,95.81
2019-01-13T06:37:57.928Z,95.61
2019-01-13T06:38:57.916Z,95.71
2019-01-13T06:39:57.916Z,95.81
2019-01-13T06:40:57.900Z,96.02
2019-01-13T06:41:57.881Z,95.61
2019-01-13T06:42:57.872Z,95.29
2019-01-13T06:43:57.857Z,95.81
2019-01-13T06:44:57.848Z,95.71
2019-01-13T06:45:57.836Z,95.19
2019-01-13T06:46:57.827Z,95.29
2019-01-13T06:47:57.816Z,95.81
2019-01-13T06:48:57.805Z,95.71
2019-01-13T06:49:57.792Z,95.92
2019-01-13T06:50:57.788Z,95.40
2019-01-13T06:51:57.773Z,95.29
2019-01-13T06:52:57.761Z,95.71
2019-01-13T06:53:57.748Z,95.40
2019-01-13T06:54:57.739Z,95.81
2019-01-13T06:55:57.728Z,95.19
2019-01-13T06:56:57.725Z,95.40
2019-01-13T06:57:57.713Z,95.40
2019-01-13T06:58:57.695Z,95.04
2019-01-13T06:59:57.683Z,95.19
2019-01-13T07:00:57.672Z,95.09
2019-01-13T07:02:03.298Z,94.68
2019-01-13T07:02:58.652Z,94.16
2019-01-13T07:03:57.644Z,94.78
2019-01-13T07:04:57.633Z,94.16
2019-01-13T07:05:57.624Z,94.78
2019-01-13T07:06:57.608Z,94.57
2019-01-13T07:07:57.599Z,94.16
2019-01-13T07:08:57.597Z,94.26
2019-01-13T07:09:57.580Z,94.43
2019-01-13T07:10:57.572Z,94.47
2019-01-13T07:11:57.567Z,94.68
2019-01-13T07:12:57.546Z,94.22
2019-01-13T07:13:57.533Z,94.12
2019-01-13T07:14:57.522Z,94.26
2019-01-13T07:15:57.512Z,94.37
2019-01-13T07:16:57.500Z,94.22
2019-01-13T07:17:57.489Z,93.60
2019-01-13T07:18:57.479Z,94.37
2019-01-13T07:19:57.466Z,94.26
2019-01-13T07:20:57.456Z,93.85
2019-01-13T07:21:57.446Z,94.12
2019-01-13T07:22:57.437Z,94.12
2019-01-13T07:23:57.426Z,93.85
2019-01-13T07:24:57.411Z,93.60
2019-01-13T07:25:57.402Z,93.85
2019-01-13T07:26:57.395Z,93.43
2019-01-13T07:27:57.379Z,93.23
2019-01-13T07:28:57.372Z,93.43
2019-01-13T07:29:57.357Z,93.60
2019-01-13T07:30:57.351Z,93.60
2019-01-13T07:31:57.335Z,93.91
2019-01-13T07:32:57.333Z,93.08
2019-01-13T07:33:57.316Z,93.39
2019-01-13T07:34:57.304Z,93.39
2019-01-13T07:35:57.291Z,93.29
2019-01-13T07:36:57.282Z,93.39
2019-01-13T07:37:57.272Z,93.80
2019-01-13T07:38:57.258Z,93.91
2019-01-13T07:39:57.249Z,94.43
2019-01-13T07:40:57.269Z,93.80
2019-01-13T07:41:57.230Z,93.80
2019-01-13T07:42:57.216Z,93.70
2019-01-13T07:43:57.203Z,93.70
2019-01-13T07:44:57.195Z,93.60
2019-01-13T07:45:57.185Z,93.91
2019-01-13T07:46:57.175Z,93.91
2019-01-13T07:47:57.162Z,93.08
2019-01-13T07:48:57.151Z,93.80
2019-01-13T07:49:57.144Z,93.70
2019-01-13T07:50:57.131Z,94.01
2019-01-13T07:51:57.122Z,94.12
2019-01-13T07:52:57.114Z,94.01
2019-01-13T07:53:57.098Z,93.18
2019-01-13T07:54:57.086Z,93.29
2019-01-13T07:55:57.075Z,93.39
2019-01-13T07:56:57.064Z,93.18
2019-01-13T07:57:57.057Z,93.18
2019-01-13T07:58:57.041Z,93.08
2019-01-13T07:59:57.032Z,92.93
2019-01-13T08:00:57.024Z,93.08
2019-01-13T08:01:57.011Z,93.14
2019-01-13T08:02:56.997Z,93.04
2019-01-13T08:03:56.990Z,93.29
2019-01-13T08:04:56.974Z,92.93
2019-01-13T08:05:56.968Z,92.83
2019-01-13T08:06:56.963Z,92.97
2019-01-13T08:07:56.953Z,92.00
2019-01-13T08:08:56.935Z,92.36
2019-01-13T08:09:56.922Z,92.21
2019-01-13T08:10:56.913Z,91.90
2019-01-13T08:11:56.899Z,92.15
2019-01-13T08:12:56.889Z,91.80
2019-01-13T08:13:56.877Z,91.94
2019-01-13T08:14:56.866Z,92.21
2019-01-13T08:15:56.857Z,91.90
2019-01-13T08:16:56.845Z,92.32
2019-01-13T08:17:56.836Z,91.90
2019-01-13T08:18:56.837Z,91.80
2019-01-13T08:19:56.813Z,91.69
2019-01-13T08:20:56.803Z,91.17
2019-01-13T08:21:56.789Z,91.38
2019-01-13T08:22:56.781Z,91.49
2019-01-13T08:23:56.771Z,91.59
2019-01-13T08:24:56.772Z,91.07
2019-01-13T08:25:56.747Z,90.77
2019-01-13T08:26:56.742Z,91.17
2019-01-13T08:27:56.730Z,91.07
2019-01-13T08:28:56.713Z,91.38
2019-01-13T08:29:56.715Z,91.07
2019-01-13T08:30:56.730Z,91.28
2019-01-13T08:31:56.680Z,90.87
2019-01-13T08:32:56.669Z,91.07
2019-01-13T08:33:56.663Z,91.38
2019-01-13T08:34:56.655Z,90.97
2019-01-13T08:35:56.640Z,90.87
2019-01-13T08:36:56.627Z,91.07
2019-01-13T08:37:56.617Z,90.97
2019-01-13T08:38:56.607Z,91.07
2019-01-13T08:39:56.595Z,90.97
2019-01-13T08:40:56.582Z,90.56
2019-01-13T08:41:56.572Z,90.77
2019-01-13T08:42:56.561Z,90.77
2019-01-13T08:43:56.552Z,90.87
2019-01-13T08:44:56.555Z,90.97
2019-01-13T08:45:56.531Z,90.87
2019-01-13T08:46:56.521Z,90.93
2019-01-13T08:47:56.505Z,91.49
2019-01-13T08:48:56.499Z,90.97
2019-01-13T08:49:56.486Z,90.93
2019-01-13T08:50:56.477Z,90.72
2019-01-13T08:51:56.465Z,90.77
2019-01-13T08:52:56.451Z,91.38
2019-01-13T08:53:56.442Z,91.34
2019-01-13T08:54:56.434Z,91.49
2019-01-13T08:55:56.420Z,90.97
2019-01-13T08:56:56.413Z,90.83
2019-01-13T08:57:56.397Z,90.93
2019-01-13T08:58:56.387Z,90.93
2019-01-13T08:59:56.374Z,90.56
2019-01-13T09:00:56.365Z,90.83
2019-01-13T09:01:56.358Z,90.72
2019-01-13T09:02:56.345Z,90.83
2019-01-13T09:03:56.333Z,91.24
2019-01-13T09:04:56.326Z,91.03
2019-01-13T09:05:56.313Z,91.03
2019-01-13T09:06:56.301Z,91.03
2019-01-13T09:07:56.287Z,91.13
2019-01-13T09:08:56.287Z,91.55
2019-01-13T09:09:56.268Z,91.59
2019-01-13T09:10:56.262Z,91.59
2019-01-13T09:11:56.251Z,92.07
2019-01-13T09:12:57.099Z,91.90
2019-01-13T09:13:56.226Z,92.00
2019-01-13T09:14:56.210Z,91.55
2019-01-13T09:15:56.205Z,91.55
2019-01-13T09:16:56.189Z,91.69
2019-01-13T09:17:56.179Z,91.44
2019-01-13T09:18:56.168Z,91.44
2019-01-13T09:19:56.157Z,91.34
2019-01-13T09:20:56.147Z,91.34
2019-01-13T09:21:56.135Z,91.55
2019-01-13T09:22:56.125Z,91.24
2019-01-13T09:23:56.114Z,91.55
2019-01-13T09:24:56.102Z,91.75
2019-01-13T09:25:56.092Z,91.65
2019-01-13T09:26:56.081Z,91.75
2019-01-13T09:27:56.074Z,92.07
2019-01-13T09:28:56.061Z,92.07
2019-01-13T09:29:56.053Z,92.99
2019-01-13T09:30:56.048Z,93.30
2019-01-13T09:31:56.038Z,93.10
2019-01-13T09:32:56.017Z,92.68
2019-01-13T09:33:56.011Z,93.51
2019-01-13T09:34:56.002Z,93.14
2019-01-13T09:35:55.984Z,93.62
2019-01-13T09:36:55.971Z,93.20
2019-01-13T09:37:55.962Z,93.72
2019-01-13T09:38:55.959Z,93.93
2019-01-13T09:39:55.942Z,93.66
2019-01-13T09:40:55.929Z,94.59
2019-01-13T09:41:55.916Z,94.28
2019-01-13T09:42:55.907Z,94.38
2019-01-13T09:43:55.898Z,94.59
2019-01-13T09:44:55.888Z,94.48
2019-01-13T09:45:55.882Z,94.90
2019-01-13T09:46:55.863Z,95.21
2019-01-13T09:47:55.855Z,95.37
2019-01-13T09:48:55.843Z,95.62
2019-01-13T09:49:55.831Z,95.10
2019-01-13T09:50:55.824Z,95.37
2019-01-13T09:51:55.815Z,95.62
2019-01-13T09:52:55.798Z,95.52
2019-01-13T09:53:55.784Z,95.00
2019-01-13T09:54:55.776Z,95.31
2019-01-13T09:55:55.764Z,95.52
2019-01-13T09:56:55.754Z,95.06
2019-01-13T09:57:55.742Z,95.21
2019-01-13T09:58:55.731Z,95.42
2019-01-13T09:59:55.721Z,95.17
2019-01-13T10:00:55.712Z,95.78
2019-01-13T10:01:55.698Z,95.73
2019-01-13T10:02:55.688Z,95.62
2019-01-13T10:03:55.692Z,95.48
2019-01-13T10:04:55.666Z,95.17
2019-01-13T10:05:55.658Z,95.10
2019-01-13T10:06:55.647Z,94.90
2019-01-13T10:07:55.641Z,94.07
2019-01-13T10:08:55.622Z,94.28
2019-01-13T10:09:55.618Z,94.18
2019-01-13T10:10:55.601Z,94.59
2019-01-13T10:11:55.599Z,94.28
2019-01-13T10:12:55.597Z,94.28
2019-01-13T10:13:55.569Z,94.23
2019-01-13T10:14:55.560Z,94.28
2019-01-13T10:15:55.548Z,94.34
2019-01-13T10:16:55.542Z,94.69
2019-01-13T10:17:55.527Z,94.59
2019-01-13T10:18:55.517Z,94.54
2019-01-13T10:19:55.506Z,94.79
2019-01-13T10:20:56.172Z,94.90
2019-01-13T10:21:55.485Z,94.90
2019-01-13T10:22:55.473Z,95.21
2019-01-13T10:23:55.463Z,95.52
2019-01-13T10:24:55.450Z,95.00
2019-01-13T10:25:55.440Z,95.62
2019-01-13T10:26:55.429Z,95.52
2019-01-13T10:27:55.420Z,95.31
2019-01-13T10:28:55.411Z,95.52
2019-01-13T10:29:55.397Z,95.17
2019-01-13T10:30:55.386Z,95.68
2019-01-13T10:31:55.377Z,95.00
2019-01-13T10:32:55.377Z,95.31
2019-01-13T10:33:55.356Z,95.21
2019-01-13T10:34:55.348Z,95.73
2019-01-13T10:35:55.335Z,95.62
2019-01-13T10:36:55.327Z,95.62
2019-01-13T10:37:55.314Z,95.94
2019-01-13T10:38:55.301Z,96.14
2019-01-13T10:39:55.290Z,95.99
2019-01-13T10:40:55.280Z,96.03
2019-01-13T10:41:55.275Z,96.09
2019-01-13T10:42:55.258Z,95.78
2019-01-13T10:43:55.252Z,95.68
2019-01-13T10:44:55.237Z,95.73
2019-01-13T10:45:55.229Z,95.68
2019-01-13T10:46:55.217Z,95.62
2019-01-13T10:47:55.206Z,95.73
2019-01-13T10:48:55.198Z,95.73
2019-01-13T10:49:55.187Z,95.73
2019-01-13T10:50:55.173Z,96.14
2019-01-13T10:51:55.165Z,96.03
2019-01-13T10:52:55.154Z,95.62
2019-01-13T10:53:55.141Z,95.73
2019-01-13T10:54:55.136Z,95.83
2019-01-13T10:55:55.578Z,95.21
2019-01-13T10:56:55.107Z,95.73
2019-01-13T10:57:55.098Z,95.62
2019-01-13T10:58:55.091Z,95.52
2019-01-13T10:59:55.073Z,95.52
2019-01-13T11:00:55.067Z,95.62
2019-01-13T11:01:55.062Z,95.42
2019-01-13T11:03:01.754Z,95.73
2019-01-13T11:03:56.030Z,95.83
2019-01-13T11:04:55.024Z,95.73
2019-01-13T11:05:55.008Z,95.10
2019-01-13T11:06:55.013Z,95.27
2019-01-13T11:07:54.986Z,95.37
2019-01-13T11:08:54.979Z,95.62
2019-01-13T11:09:54.972Z,95.42
2019-01-13T11:10:54.958Z,95.21
2019-01-13T11:11:55.003Z,95.52
2019-01-13T11:12:54.943Z,95.42
2019-01-13T11:13:54.924Z,95.42
2019-01-13T11:14:54.913Z,95.10
2019-01-13T11:15:54.900Z,95.00
2019-01-13T11:16:54.893Z,95.73
2019-01-13T11:17:54.879Z,95.68
2019-01-13T11:18:54.876Z,96.34
2019-01-13T11:19:54.864Z,96.45
2019-01-13T11:20:54.851Z,95.62
2019-01-13T11:21:54.837Z,95.62
2019-01-13T11:22:54.829Z,96.03
2019-01-13T11:23:54.819Z,96.76
2019-01-13T11:24:54.811Z,96.45
2019-01-13T11:25:54.801Z,96.55
2019-01-13T11:26:54.784Z,96.03
2019-01-13T11:27:54.776Z,96.03
2019-01-13T11:28:54.763Z,96.24
2019-01-13T11:29:54.753Z,96.24
2019-01-13T11:30:54.760Z,95.52
2019-01-13T11:31:54.730Z,96.55
2019-01-13T11:32:54.721Z,96.34
2019-01-13T11:33:54.712Z,96.66
2019-01-13T11:34:54.705Z,96.45
2019-01-13T11:35:54.692Z,96.45
2019-01-13T11:36:54.689Z,96.24
2019-01-13T11:37:54.668Z,96.34
2019-01-13T11:38:54.655Z,96.55
2019-01-13T11:39:54.646Z,96.14
2019-01-13T11:40:54.633Z,96.76
2019-01-13T11:41:54.629Z,96.72
2019-01-13T11:42:54.621Z,96.82
2019-01-13T11:43:54.612Z,96.34
2019-01-13T11:44:54.593Z,96.55
2019-01-13T11:45:54.583Z,96.45
2019-01-13T11:46:54.576Z,96.30
2019-01-13T11:47:54.571Z,95.52
2019-01-13T11:48:54.550Z,96.24
2019-01-13T11:49:54.537Z,96.41
2019-01-13T11:50:54.579Z,96.24
2019-01-13T11:51:54.522Z,95.94
2019-01-13T11:52:54.511Z,96.66
2019-01-13T11:53:54.507Z,96.45
2019-01-13T11:54:54.485Z,96.34
2019-01-13T11:55:54.476Z,95.62
2019-01-13T11:56:54.493Z,96.14
2019-01-13T11:57:54.458Z,96.55
2019-01-13T11:58:54.442Z,96.34
2019-01-13T11:59:54.448Z,96.55
2019-01-13T12:00:54.435Z,96.55
2019-01-13T12:01:54.425Z,96.34
2019-01-13T12:02:54.407Z,96.24
2019-01-13T12:03:54.390Z,96.66
2019-01-13T12:04:54.415Z,96.03
2019-01-13T12:05:54.377Z,96.66
2019-01-13T12:06:54.368Z,96.86
2019-01-13T12:07:54.352Z,96.66
2019-01-13T12:08:54.383Z,96.45
2019-01-13T12:09:54.330Z,96.55
2019-01-13T12:10:54.320Z,96.86
2019-01-13T12:11:54.304Z,96.66
2019-01-13T12:12:54.327Z,96.34
2019-01-13T12:13:54.282Z,96.80
2019-01-13T12:14:54.272Z,96.66
2019-01-13T12:15:54.262Z,96.55
2019-01-13T12:16:54.253Z,97.59
2019-01-13T12:17:54.249Z,97.17
2019-01-13T12:18:54.230Z,96.76
2019-01-13T12:19:54.219Z,96.76
2019-01-13T12:20:54.211Z,96.76
2019-01-13T12:21:54.259Z,96.86
2019-01-13T12:22:54.188Z,96.66
2019-01-13T12:23:54.183Z,96.55
2019-01-13T12:24:54.173Z,97.07
2019-01-13T12:25:54.167Z,96.76
2019-01-13T12:26:54.146Z,97.07
2019-01-13T12:27:54.139Z,96.76
2019-01-13T12:28:54.129Z,96.66
2019-01-13T12:29:54.117Z,96.76
2019-01-13T12:30:54.110Z,96.76
2019-01-13T12:31:54.091Z,97.01
2019-01-13T12:32:54.083Z,97.17
2019-01-13T12:33:54.073Z,97.11
2019-01-13T12:34:54.063Z,96.76
2019-01-13T12:35:54.052Z,96.66
2019-01-13T12:36:54.039Z,97.17
2019-01-13T12:37:54.027Z,96.55
2019-01-13T12:38:54.018Z,96.86
2019-01-13T12:39:54.010Z,97.07
2019-01-13T12:40:54.040Z,97.07
2019-01-13T12:41:54.141Z,97.07
2019-01-13T12:42:53.973Z,97.38
2019-01-13T12:43:53.962Z,97.38
2019-01-13T12:44:53.951Z,97.28
2019-01-13T12:45:53.942Z,97.59
2019-01-13T12:46:53.933Z,97.59
2019-01-13T12:47:53.921Z,98.41
2019-01-13T12:48:53.910Z,98.00
2019-01-13T12:49:53.900Z,98.41
2019-01-13T12:50:54.063Z,97.75
2019-01-13T12:51:53.880Z,97.96